Time;durP1;ratioP1;P1;durP2;ratioP2;P2;SDS_P1;SDS_P2;PMS_P1;PMS_P2;Temp;Humidity;BMP_temperature;BMP_pressure;BME280_temperature;BME280_humidity;BME280_pressure;Samples;Min_cycle;Max_cycle;Signal;HPM_P1;HPM_P2
2022/09/26 00:01:55;;;;;;;0.40;0.40;;;;;;;;;;5047784;28;20075;-58
2022/09/26 00:04:27;;;;;;;1.83;0.33;;;;;;;;;;5069371;28;20431;-57
2022/09/26 00:06:53;;;;;;;0.55;0.30;;;;;;;;;;5073643;28;20071;-58
2022/09/26 00:09:20;;;;;;;0.30;0.30;;;;;;;;;;5082204;28;20047;-58
2022/09/26 00:11:46;;;;;;;0.40;0.32;;;;;;;;;;5061748;28;20068;-60
2022/09/26 00:14:13;;;;;;;0.30;0.30;;;;;;;;;;5080046;28;20090;-59
2022/09/26 00:16:39;;;;;;;0.30;0.30;;;;;;;;;;5081306;28;20516;-57
2022/09/26 00:19:05;;;;;;;0.45;0.38;;;;;;;;;;5084562;28;20044;-58
2022/09/26 00:21:33;;;;;;;0.38;0.38;;;;;;;;;;5082931;28;20040;-58
2022/09/26 00:23:59;;;;;;;0.47;0.43;;;;;;;;;;5080803;28;20135;-60
2022/09/26 00:26:26;;;;;;;0.40;0.38;;;;;;;;;;5076971;28;20166;-58
2022/09/26 00:28:51;;;;;;;0.30;0.30;;;;;;;;;;5075350;28;20048;-58
2022/09/26 00:31:18;;;;;;;0.52;0.40;;;;;;;;;;5086867;28;20056;-59
2022/09/26 00:33:44;;;;;;;0.38;0.30;;;;;;;;;;5068673;28;20102;-60
2022/09/26 00:36:09;;;;;;;0.30;0.30;;;;;;;;;;5088767;28;20036;-58
2022/09/26 00:38:35;;;;;;;0.30;0.30;;;;;;;;;;5065619;28;20535;-60
2022/09/26 00:41:00;;;;;;;0.30;0.30;;;;;;;;;;5064900;28;20044;-60
2022/09/26 00:43:26;;;;;;;0.60;0.50;;;;;;;;;;5063760;28;20045;-57
2022/09/26 00:45:51;;;;;;;0.30;0.30;;;;;;;;;;5062904;28;20043;-59
2022/09/26 00:48:17;;;;;;;0.30;0.30;;;;;;;;;;5078857;28;20476;-60
2022/09/26 00:50:43;;;;;;;0.38;0.25;;;;;;;;;;5082245;28;20041;-60
2022/09/26 00:53:08;;;;;;;0.30;0.30;;;;;;;;;;5063677;28;20105;-60
2022/09/26 00:55:35;;;;;;;0.40;0.40;;;;;;;;;;5090121;28;20044;-59
2022/09/26 00:58:07;;;;;;;0.40;0.40;;;;;;;;;;5081931;28;20052;-58
2022/09/26 01:00:33;;;;;;;0.30;0.30;;;;;;;;;;5086374;28;20050;-59
2022/09/26 01:02:59;;;;;;;0.30;0.30;;;;;;;;;;5071260;28;20130;-58
2022/09/26 01:05:24;;;;;;;0.43;0.30;;;;;;;;;;5089046;28;20032;-61
2022/09/26 01:07:51;;;;;;;0.30;0.30;;;;;;;;;;5074554;28;20052;-61
2022/09/26 01:10:16;;;;;;;0.30;0.30;;;;;;;;;;5054939;28;20083;-59
2022/09/26 01:12:42;;;;;;;0.55;0.40;;;;;;;;;;5069540;28;20072;-57
2022/09/26 01:15:08;;;;;;;0.28;0.28;;;;;;;;;;5059696;28;20061;-57
2022/09/26 01:17:34;;;;;;;0.30;0.30;;;;;;;;;;5060467;28;20037;-59
2022/09/26 01:20:02;;;;;;;0.38;0.38;;;;;;;;;;5053906;28;20040;-59
2022/09/26 01:22:35;;;;;;;0.28;0.28;;;;;;;;;;5054399;28;20041;-57
2022/09/26 01:25:04;;;;;;;0.30;0.30;;;;;;;;;;5065249;28;20150;-57
2022/09/26 01:27:41;;;;;;;0.22;0.22;;;;;;;;;;5069084;28;20142;-58
2022/09/26 01:30:08;;;;;;;0.22;0.22;;;;;;;;;;5057760;28;20045;-61
2022/09/26 01:32:56;;;;;;;0.30;0.30;;;;;;;;;;5047044;28;20571;-59
2022/09/26 01:35:39;;;;;;;0.30;0.30;;;;;;;;;;5056878;28;20094;-61
2022/09/26 01:38:11;;;;;;;0.30;0.30;;;;;;;;;;5054279;28;20044;-60
2022/09/26 01:40:38;;;;;;;0.35;0.35;;;;;;;;;;5068772;28;20055;-61
2022/09/26 01:43:18;;;;;;;0.20;0.20;;;;;;;;;;5069065;28;20126;-61
2022/09/26 01:45:50;;;;;;;0.30;0.30;;;;;;;;;;5068315;28;20119;-61
2022/09/26 01:48:18;;;;;;;0.30;0.30;;;;;;;;;;5055868;28;20136;-59
2022/09/26 01:50:48;;;;;;;0.30;0.30;;;;;;;;;;5030215;28;20453;-58
2022/09/26 01:53:16;;;;;;;0.30;0.30;;;;;;;;;;5058971;28;20040;-59
2022/09/26 01:55:46;;;;;;;0.30;0.30;;;;;;;;;;5043015;28;20040;-58
2022/09/26 01:58:11;;;;;;;0.30;0.30;;;;;;;;;;5051290;28;20123;-61
2022/09/26 02:00:38;;;;;;;0.20;0.20;;;;;;;;;;5056872;28;20144;-59
2022/09/26 02:03:04;;;;;;;0.22;0.22;;;;;;;;;;5063760;28;20421;-61
2022/09/26 02:05:45;;;;;;;0.30;0.20;;;;;;;;;;5045839;28;20492;-59
2022/09/26 02:08:23;;;;;;;0.20;0.20;;;;;;;;;;5066194;28;20147;-61
2022/09/26 02:10:51;;;;;;;0.30;0.30;;;;;;;;;;5040687;28;20065;-61
2022/09/26 02:13:19;;;;;;;0.32;0.32;;;;;;;;;;5044674;28;20037;-59
2022/09/26 02:15:46;;;;;;;0.28;0.28;;;;;;;;;;5057335;28;20087;-58
2022/09/26 02:18:31;;;;;;;0.35;0.32;;;;;;;;;;5058789;28;20036;-59
2022/09/26 02:21:00;;;;;;;0.30;0.30;;;;;;;;;;5061933;28;20055;-59
2022/09/26 02:23:26;;;;;;;0.40;0.40;;;;;;;;;;5048975;28;20136;-58
2022/09/26 02:25:51;;;;;;;0.30;0.30;;;;;;;;;;5050340;28;20131;-60
2022/09/26 02:28:16;;;;;;;0.38;0.32;;;;;;;;;;5031846;28;20065;-60
2022/09/26 02:30:43;;;;;;;0.10;0.10;;;;;;;;;;5041774;28;20131;-60
2022/09/26 02:33:09;;;;;;;0.20;0.20;;;;;;;;;;5060781;28;20287;-60
2022/09/26 02:38:18;;;;;;;0.30;0.30;;;;;;;;;;5061335;28;20068;-60
2022/09/26 02:40:51;;;;;;;0.50;0.40;;;;;;;;;;5048954;28;20037;-58
2022/09/26 02:43:23;;;;;;;0.30;0.30;;;;;;;;;;5068226;28;20554;-58
2022/09/26 02:45:52;;;;;;;0.50;0.40;;;;;;;;;;5056191;28;20036;-58
2022/09/26 02:48:23;;;;;;;0.30;0.30;;;;;;;;;;5053670;28;20042;-60
2022/09/26 02:51:09;;;;;;;0.30;0.30;;;;;;;;;;5061651;28;20036;-58
2022/09/26 02:53:37;;;;;;;0.40;0.30;;;;;;;;;;5068059;28;20101;-60
2022/09/26 02:56:08;;;;;;;0.20;0.20;;;;;;;;;;5061998;28;20523;-60
2022/09/26 02:58:36;;;;;;;0.38;0.38;;;;;;;;;;5045522;28;20119;-60
2022/09/26 03:01:14;;;;;;;0.47;0.32;;;;;;;;;;5059805;28;20473;-60
2022/09/26 03:03:43;;;;;;;0.30;0.30;;;;;;;;;;5067765;28;20051;-60
2022/09/26 03:06:10;;;;;;;0.30;0.30;;;;;;;;;;5054886;28;20520;-58
2022/09/26 03:08:37;;;;;;;0.20;0.20;;;;;;;;;;5056150;28;20048;-60
2022/09/26 03:11:04;;;;;;;0.20;0.20;;;;;;;;;;5064859;28;20040;-61
2022/09/26 03:13:32;;;;;;;1.33;0.30;;;;;;;;;;5050369;28;20045;-60
2022/09/26 03:15:58;;;;;;;0.30;0.30;;;;;;;;;;5065770;28;20044;-58
2022/09/26 03:18:27;;;;;;;0.30;0.30;;;;;;;;;;5063761;28;20374;-58
2022/09/26 03:20:53;;;;;;;0.38;0.32;;;;;;;;;;5033935;28;20052;-58
2022/09/26 03:23:22;;;;;;;0.30;0.30;;;;;;;;;;5058382;28;20183;-58
2022/09/26 03:26:09;;;;;;;0.30;0.30;;;;;;;;;;5055369;28;20128;-60
2022/09/26 03:28:34;;;;;;;0.40;0.40;;;;;;;;;;5065190;28;20048;-58
2022/09/26 03:30:59;;;;;;;0.30;0.30;;;;;;;;;;5057363;28;20046;-58
2022/09/26 03:33:25;;;;;;;0.40;0.40;;;;;;;;;;5040443;28;20140;-58
2022/09/26 03:35:50;;;;;;;0.28;0.28;;;;;;;;;;5061319;28;20282;-57
2022/09/26 03:38:15;;;;;;;0.30;0.30;;;;;;;;;;5060363;28;20049;-57
2022/09/26 03:40:41;;;;;;;0.32;0.32;;;;;;;;;;5066461;28;20044;-58
2022/09/26 03:43:06;;;;;;;0.32;0.32;;;;;;;;;;5068321;28;20043;-58
2022/09/26 03:45:35;;;;;;;0.40;0.30;;;;;;;;;;5054755;28;20052;-60
2022/09/26 03:48:00;;;;;;;0.40;0.30;;;;;;;;;;5061930;28;20049;-60
2022/09/26 03:50:25;;;;;;;0.30;0.30;;;;;;;;;;5064270;28;20052;-60
2022/09/26 03:52:51;;;;;;;0.20;0.20;;;;;;;;;;5057578;28;20048;-60
2022/09/26 03:55:16;;;;;;;0.28;0.28;;;;;;;;;;5066033;28;20328;-60
2022/09/26 03:57:41;;;;;;;0.30;0.30;;;;;;;;;;5051496;28;20170;-60
2022/09/26 04:00:07;;;;;;;0.20;0.20;;;;;;;;;;5060229;28;20098;-60
2022/09/26 04:02:32;;;;;;;0.30;0.30;;;;;;;;;;5069288;28;20040;-58
2022/09/26 04:04:58;;;;;;;0.10;0.10;;;;;;;;;;5044473;28;20045;-58
2022/09/26 04:07:23;;;;;;;0.20;0.20;;;;;;;;;;5069517;28;20455;-59
2022/09/26 04:09:49;;;;;;;0.30;0.30;;;;;;;;;;5068394;28;20287;-58
2022/09/26 04:12:14;;;;;;;0.38;0.30;;;;;;;;;;5027135;28;20169;-58
2022/09/26 04:14:42;;;;;;;0.28;0.20;;;;;;;;;;5051341;28;20088;-60
2022/09/26 04:17:07;;;;;;;0.20;0.20;;;;;;;;;;5055349;28;20071;-61
2022/09/26 04:19:33;;;;;;;0.30;0.30;;;;;;;;;;5049116;28;20426;-59
2022/09/26 04:21:58;;;;;;;0.28;0.28;;;;;;;;;;5054554;28;20504;-59
2022/09/26 04:24:23;;;;;;;0.20;0.20;;;;;;;;;;5042767;28;20073;-59
2022/09/26 04:26:49;;;;;;;0.20;0.20;;;;;;;;;;5054125;28;20287;-57
2022/09/26 04:29:15;;;;;;;0.20;0.20;;;;;;;;;;5056698;28;20087;-60
2022/09/26 04:31:40;;;;;;;0.20;0.20;;;;;;;;;;5056352;28;20064;-57
2022/09/26 04:34:06;;;;;;;0.25;0.25;;;;;;;;;;5068151;28;20068;-60
2022/09/26 04:36:31;;;;;;;0.27;0.27;;;;;;;;;;5059258;28;20041;-60
2022/09/26 04:38:59;;;;;;;0.20;0.20;;;;;;;;;;5066864;28;20355;-60
2022/09/26 04:41:26;;;;;;;0.40;0.38;;;;;;;;;;5052733;28;20560;-58
2022/09/26 04:43:53;;;;;;;0.30;0.30;;;;;;;;;;5047708;28;20049;-58
2022/09/26 04:46:20;;;;;;;0.93;0.30;;;;;;;;;;5062624;28;20071;-58
2022/09/26 04:48:46;;;;;;;0.20;0.20;;;;;;;;;;5059593;28;20059;-58
2022/09/26 04:51:13;;;;;;;0.25;0.25;;;;;;;;;;5063091;28;20429;-58
2022/09/26 04:53:39;;;;;;;0.20;0.20;;;;;;;;;;5055880;28;20052;-58
2022/09/26 04:56:05;;;;;;;0.30;0.30;;;;;;;;;;5059395;28;20037;-60
2022/09/26 04:58:30;;;;;;;0.30;0.30;;;;;;;;;;5058996;28;20045;-60
2022/09/26 05:01:00;;;;;;;0.30;0.30;;;;;;;;;;5054804;28;20098;-58
2022/09/26 05:03:27;;;;;;;0.40;0.20;;;;;;;;;;5068178;28;20059;-60
2022/09/26 05:05:53;;;;;;;0.43;0.35;;;;;;;;;;5070525;28;20049;-58
2022/09/26 05:08:18;;;;;;;0.20;0.20;;;;;;;;;;5065371;28;20049;-58
2022/09/26 05:10:50;;;;;;;0.55;0.25;;;;;;;;;;5040305;28;20134;-60
2022/09/26 05:13:15;;;;;;;0.57;0.38;;;;;;;;;;5052785;28;20508;-58
2022/09/26 05:15:41;;;;;;;0.43;0.37;;;;;;;;;;5062832;28;20044;-60
2022/09/26 05:18:07;;;;;;;0.20;0.20;;;;;;;;;;5069062;28;20385;-60
2022/09/26 05:20:44;;;;;;;0.20;0.20;;;;;;;;;;5068496;28;20037;-58
2022/09/26 05:23:09;;;;;;;0.20;0.20;;;;;;;;;;5049547;28;20382;-59
2022/09/26 05:28:23;;;;;;;6.47;0.50;;;;;;;;;;5070194;28;20527;-58
2022/09/26 05:30:50;;;;;;;4.80;0.55;;;;;;;;;;5069397;28;20041;-59
2022/09/26 05:33:15;;;;;;;1.95;0.40;;;;;;;;;;5069529;28;20439;-59
2022/09/26 05:35:40;;;;;;;2.67;0.30;;;;;;;;;;5069927;28;20504;-59
2022/09/26 05:38:06;;;;;;;2.58;0.43;;;;;;;;;;5069425;28;20075;-58
2022/09/26 05:43:15;;;;;;;2.28;0.40;;;;;;;;;;5063486;28;20044;-59
2022/09/26 05:45:40;;;;;;;3.00;0.60;;;;;;;;;;5049612;28;20405;-59
2022/09/26 05:48:05;;;;;;;1.30;0.40;;;;;;;;;;5056663;28;20294;-59
2022/09/26 05:50:34;;;;;;;2.45;0.50;;;;;;;;;;5060141;28;20053;-59
2022/09/26 05:53:00;;;;;;;1.85;0.40;;;;;;;;;;5052940;28;20182;-59
2022/09/26 05:55:25;;;;;;;5.30;0.50;;;;;;;;;;5035859;28;20500;-58
2022/09/26 05:57:52;;;;;;;1.40;0.32;;;;;;;;;;5062301;28;20037;-59
2022/09/26 06:00:17;;;;;;;1.90;0.40;;;;;;;;;;5069212;28;20055;-59
2022/09/26 06:02:42;;;;;;;0.57;0.28;;;;;;;;;;5066773;28;20044;-59
2022/09/26 06:05:08;;;;;;;0.43;0.30;;;;;;;;;;5069211;28;20037;-59
2022/09/26 06:07:33;;;;;;;0.55;0.30;;;;;;;;;;5069087;28;20047;-59
2022/09/26 06:09:58;;;;;;;0.40;0.30;;;;;;;;;;5046859;28;20384;-58
2022/09/26 06:12:27;;;;;;;1.03;0.33;;;;;;;;;;5069059;28;20040;-59
2022/09/26 06:14:52;;;;;;;0.40;0.30;;;;;;;;;;5068769;28;20294;-59
2022/09/26 06:17:18;;;;;;;0.57;0.30;;;;;;;;;;5069312;28;20041;-59
2022/09/26 06:19:43;;;;;;;1.23;0.40;;;;;;;;;;5068400;28;20507;-59
2022/09/26 06:22:08;;;;;;;0.25;0.22;;;;;;;;;;5048438;28;20409;-58
2022/09/26 06:24:34;;;;;;;0.45;0.40;;;;;;;;;;5048739;28;20412;-58
2022/09/26 06:26:59;;;;;;;0.20;0.20;;;;;;;;;;5065896;28;20520;-59
2022/09/26 06:29:24;;;;;;;1.13;0.30;;;;;;;;;;5049576;28;20043;-58
2022/09/26 06:31:49;;;;;;;0.63;0.30;;;;;;;;;;5045642;28;20409;-59
2022/09/26 06:34:15;;;;;;;0.53;0.20;;;;;;;;;;5062732;28;20303;-60
2022/09/26 06:36:40;;;;;;;0.30;0.30;;;;;;;;;;5044578;28;20045;-60
2022/09/26 06:39:05;;;;;;;0.60;0.37;;;;;;;;;;5056184;28;20027;-61
2022/09/26 06:41:30;;;;;;;0.43;0.30;;;;;;;;;;5063263;28;20489;-60
2022/09/26 06:43:56;;;;;;;0.40;0.40;;;;;;;;;;5057695;28;20412;-62
2022/09/26 06:46:21;;;;;;;1.23;0.30;;;;;;;;;;5049112;28;20496;-61
2022/09/26 06:48:47;;;;;;;0.40;0.30;;;;;;;;;;5065781;28;20048;-60
2022/09/26 06:51:13;;;;;;;0.35;0.35;;;;;;;;;;5062397;28;20358;-61
2022/09/26 06:53:38;;;;;;;0.93;0.40;;;;;;;;;;5058648;28;20052;-61
2022/09/26 06:56:07;;;;;;;0.35;0.25;;;;;;;;;;5047605;28;20041;-61
2022/09/26 06:58:33;;;;;;;2.92;0.40;;;;;;;;;;5040120;28;20047;-60
2022/09/26 07:00:58;;;;;;;0.95;0.60;;;;;;;;;;5065116;28;20033;-61
2022/09/26 07:03:25;;;;;;;0.30;0.30;;;;;;;;;;5063984;28;20044;-60
2022/09/26 07:05:53;;;;;;;0.70;0.50;;;;;;;;;;5052207;28;20118;-62
2022/09/26 07:08:18;;;;;;;2.28;0.30;;;;;;;;;;5058482;28;20133;-62
2022/09/26 07:10:43;;;;;;;2.47;0.45;;;;;;;;;;5053452;28;20060;-62
2022/09/26 07:13:09;;;;;;;0.50;0.43;;;;;;;;;;5060771;28;20044;-61
2022/09/26 07:15:35;;;;;;;1.58;0.43;;;;;;;;;;5059494;28;20661;-58
2022/09/26 07:18:01;;;;;;;0.63;0.40;;;;;;;;;;5054063;28;20505;-62
2022/09/26 07:20:27;;;;;;;0.50;0.50;;;;;;;;;;5062794;28;20474;-62
2022/09/26 07:22:53;;;;;;;0.40;0.40;;;;;;;;;;5064806;28;20045;-61
2022/09/26 07:25:18;;;;;;;1.10;0.50;;;;;;;;;;5070103;28;20043;-67
2022/09/26 07:27:47;;;;;;;0.40;0.40;;;;;;;;;;5062736;28;20677;-61
2022/09/26 07:30:13;;;;;;;2.05;0.38;;;;;;;;;;5064435;28;20040;-63
2022/09/26 07:32:38;;;;;;;0.70;0.40;;;;;;;;;;5060653;28;20039;-62
2022/09/26 07:35:04;;;;;;;1.00;0.70;;;;;;;;;;5046429;28;20288;-62
2022/09/26 07:37:29;;;;;;;3.30;0.80;;;;;;;;;;5051520;28;20041;-59
2022/09/26 07:39:55;;;;;;;2.60;0.80;;;;;;;;;;5065035;28;20086;-63
2022/09/26 07:42:20;;;;;;;1.52;0.70;;;;;;;;;;5042242;28;20048;-60
2022/09/26 07:44:46;;;;;;;1.48;0.60;;;;;;;;;;5063558;28;20490;-61
2022/09/26 07:50:15;;;;;;;0.90;0.60;;;;;;;;;;5060799;28;20043;-62
2022/09/26 07:52:44;;;;;;;2.13;0.57;;;;;;;;;;5057785;28;20055;-59
2022/09/26 07:55:11;;;;;;;1.38;0.90;;;;;;;;;;5059225;28;20702;-57
2022/09/26 07:57:37;;;;;;;1.35;0.50;;;;;;;;;;5059766;28;20600;-58
2022/09/26 08:00:07;;;;;;;2.92;0.70;;;;;;;;;;5059481;28;20167;-59
2022/09/26 08:02:34;;;;;;;1.45;0.70;;;;;;;;;;5047128;28;20044;-60
2022/09/26 08:05:03;;;;;;;1.65;0.60;;;;;;;;;;5052348;28;20049;-61
2022/09/26 08:07:29;;;;;;;1.67;0.70;;;;;;;;;;5038130;28;20080;-56
2022/09/26 08:09:55;;;;;;;3.35;1.30;;;;;;;;;;5051431;28;20037;-59
2022/09/26 08:12:21;;;;;;;5.45;2.90;;;;;;;;;;5055373;28;20059;-62
2022/09/26 08:14:48;;;;;;;10.88;7.10;;;;;;;;;;5048487;28;20192;-61
2022/09/26 08:17:14;;;;;;;9.35;5.05;;;;;;;;;;5034852;28;20041;-58
2022/09/26 08:19:39;;;;;;;6.35;3.67;;;;;;;;;;5058321;28;20048;-62
2022/09/26 08:22:06;;;;;;;5.60;3.20;;;;;;;;;;5067816;28;20455;-62
2022/09/26 08:24:31;;;;;;;5.78;3.17;;;;;;;;;;5045214;28;20706;-63
2022/09/26 08:26:57;;;;;;;6.03;2.92;;;;;;;;;;5043527;28;20044;-62
2022/09/26 08:29:23;;;;;;;4.35;2.70;;;;;;;;;;5062940;28;20060;-58
2022/09/26 08:31:50;;;;;;;4.93;2.25;;;;;;;;;;5054500;28;20036;-62
2022/09/26 08:34:15;;;;;;;3.45;1.92;;;;;;;;;;5052075;28;20044;-61
2022/09/26 08:36:40;;;;;;;3.70;2.00;;;;;;;;;;5064152;28;20041;-62
2022/09/26 08:39:06;;;;;;;3.22;1.90;;;;;;;;;;5046106;28;20041;-63
2022/09/26 08:41:51;;;;;;;3.33;1.80;;;;;;;;;;5055091;28;20124;-70
2022/09/26 08:44:30;;;;;;;3.33;1.70;;;;;;;;;;5041409;28;20432;-59
2022/09/26 08:47:01;;;;;;;2.58;1.58;;;;;;;;;;5040639;28;20041;-70
2022/09/26 08:50:06;;;;;;;4.22;1.70;;;;;;;;;;5040460;28;20183;-59
2022/09/26 08:52:36;;;;;;;2.67;1.70;;;;;;;;;;4963991;28;20081;-59
2022/09/26 08:55:06;;;;;;;3.65;1.33;;;;;;;;;;4955029;28;20050;-58
2022/09/26 08:57:43;;;;;;;2.55;1.33;;;;;;;;;;4948047;28;20043;-58
2022/09/26 09:00:17;;;;;;;2.15;1.23;;;;;;;;;;4965446;28;20070;-61
2022/09/26 09:03:02;;;;;;;2.15;1.25;;;;;;;;;;4959144;28;20582;-58
2022/09/26 09:05:29;;;;;;;2.55;1.10;;;;;;;;;;4944505;28;20618;-58
2022/09/26 09:07:56;;;;;;;2.58;1.30;;;;;;;;;;4995190;28;20151;-57
2022/09/26 09:10:29;;;;;;;1.95;1.10;;;;;;;;;;5072867;28;20151;-58
2022/09/26 09:12:55;;;;;;;1.85;1.00;;;;;;;;;;5083559;28;20040;-61
2022/09/26 09:15:27;;;;;;;1.83;1.05;;;;;;;;;;5083395;28;20039;-61
2022/09/26 09:17:56;;;;;;;1.92;1.05;;;;;;;;;;5078707;28;20504;-56
2022/09/26 09:20:33;;;;;;;3.22;1.00;;;;;;;;;;5073334;28;20040;-58
2022/09/26 09:23:14;;;;;;;1.40;0.90;;;;;;;;;;5075501;28;20040;-60
2022/09/26 09:25:45;;;;;;;1.35;0.82;;;;;;;;;;5083277;28;20047;-57
2022/09/26 09:28:29;;;;;;;1.55;0.90;;;;;;;;;;5082663;28;20040;-58
2022/09/26 09:31:02;;;;;;;1.60;1.00;;;;;;;;;;5060112;28;20522;-61
2022/09/26 09:33:48;;;;;;;1.48;0.90;;;;;;;;;;5074388;28;20094;-60
2022/09/26 09:36:16;;;;;;;1.48;0.90;;;;;;;;;;5084523;28;20148;-62
2022/09/26 09:38:44;;;;;;;1.30;0.77;;;;;;;;;;5068878;28;20456;-56
2022/09/26 09:41:11;;;;;;;1.00;0.68;;;;;;;;;;5086590;28;20028;-57
2022/09/26 09:43:47;;;;;;;1.35;0.80;;;;;;;;;;5077674;28;20052;-57
2022/09/26 09:46:31;;;;;;;1.17;0.75;;;;;;;;;;5085306;28;20040;-57
2022/09/26 09:49:08;;;;;;;1.05;0.73;;;;;;;;;;5065464;28;20085;-57
2022/09/26 09:51:42;;;;;;;1.08;0.88;;;;;;;;;;5056445;28;20051;-61
2022/09/26 09:54:26;;;;;;;0.98;0.60;;;;;;;;;;5066342;28;20044;-57
2022/09/26 09:56:54;;;;;;;0.93;0.75;;;;;;;;;;5081714;28;20105;-61
2022/09/26 09:59:19;;;;;;;0.82;0.60;;;;;;;;;;5058993;28;20047;-58
2022/09/26 10:01:47;;;;;;;0.80;0.60;;;;;;;;;;5081833;28;20419;-62
2022/09/26 10:04:26;;;;;;;0.82;0.60;;;;;;;;;;5077749;28;20036;-58
2022/09/26 10:06:52;;;;;;;0.70;0.60;;;;;;;;;;5080323;28;20044;-62
2022/09/26 10:09:26;;;;;;;1.17;0.73;;;;;;;;;;5077866;28;20044;-58
2022/09/26 10:11:52;;;;;;;0.77;0.60;;;;;;;;;;5070486;28;20495;-62
2022/09/26 10:14:23;;;;;;;0.77;0.60;;;;;;;;;;5074817;28;20044;-58
2022/09/26 10:17:07;;;;;;;1.00;0.50;;;;;;;;;;5072436;28;20043;-62
2022/09/26 10:19:35;;;;;;;1.00;0.80;;;;;;;;;;5072484;28;20044;-62
2022/09/26 10:22:01;;;;;;;0.50;0.50;;;;;;;;;;5073889;28;20500;-62
2022/09/26 10:24:33;;;;;;;1.33;0.70;;;;;;;;;;5075714;28;20097;-62
2022/09/26 10:27:12;;;;;;;0.70;0.60;;;;;;;;;;5073115;28;20041;-56
2022/09/26 10:29:38;;;;;;;0.55;0.50;;;;;;;;;;5082402;28;20079;-58
2022/09/26 10:32:04;;;;;;;0.52;0.50;;;;;;;;;;5079836;28;20071;-61
2022/09/26 10:34:30;;;;;;;0.70;0.50;;;;;;;;;;5074330;28;20060;-58
2022/09/26 10:36:56;;;;;;;0.70;0.60;;;;;;;;;;5070397;28;20047;-62
2022/09/26 10:42:17;;;;;;;0.85;0.50;;;;;;;;;;5080727;28;20043;-58
2022/09/26 10:44:47;;;;;;;0.40;0.40;;;;;;;;;;5077669;28;20044;-62
2022/09/26 10:47:26;;;;;;;0.63;0.50;;;;;;;;;;5075223;28;20040;-62
2022/09/26 10:49:51;;;;;;;0.88;0.60;;;;;;;;;;5050349;28;20144;-58
2022/09/26 10:52:24;;;;;;;0.63;0.50;;;;;;;;;;5072402;28;20466;-61
2022/09/26 10:55:08;;;;;;;0.63;0.50;;;;;;;;;;5074364;28;20060;-58
2022/09/26 10:57:38;;;;;;;0.88;0.60;;;;;;;;;;5070345;28;20509;-61
2022/09/26 11:00:06;;;;;;;0.75;0.50;;;;;;;;;;5077645;28;20053;-57
2022/09/26 11:02:32;;;;;;;0.90;0.60;;;;;;;;;;5074410;28;20048;-56
2022/09/26 11:07:43;;;;;;;0.63;0.60;;;;;;;;;;5073420;28;20087;-57
2022/09/26 11:10:10;;;;;;;0.93;0.57;;;;;;;;;;5076073;28;20048;-57
2022/09/26 11:12:38;;;;;;;1.02;0.60;;;;;;;;;;5078343;28;20075;-61
2022/09/26 11:15:04;;;;;;;0.73;0.50;;;;;;;;;;5082060;28;20044;-57
2022/09/26 11:17:49;;;;;;;0.73;0.60;;;;;;;;;;5075130;28;20457;-61
2022/09/26 11:20:33;;;;;;;0.75;0.52;;;;;;;;;;5070927;28;20400;-57
2022/09/26 11:23:10;;;;;;;0.70;0.57;;;;;;;;;;5081954;28;20106;-61
2022/09/26 11:25:46;;;;;;;1.00;0.70;;;;;;;;;;5075356;28;20090;-61
2022/09/26 11:28:14;;;;;;;0.50;0.50;;;;;;;;;;5059493;28;20075;-60
2022/09/26 11:30:41;;;;;;;0.70;0.60;;;;;;;;;;5075074;28;20056;-57
2022/09/26 11:33:12;;;;;;;0.80;0.60;;;;;;;;;;5084656;28;20450;-57
2022/09/26 11:35:44;;;;;;;1.05;0.73;;;;;;;;;;5065864;28;20083;-61
2022/09/26 11:38:12;;;;;;;1.08;0.70;;;;;;;;;;5079635;28;20047;-61
2022/09/26 11:40:56;;;;;;;1.05;0.75;;;;;;;;;;5078670;28;20041;-60
2022/09/26 11:43:45;;;;;;;1.02;0.70;;;;;;;;;;5078787;28;20172;-57
2022/09/26 11:46:29;;;;;;;1.20;0.80;;;;;;;;;;5040350;28;20496;-61
2022/09/26 11:49:04;;;;;;;0.98;0.77;;;;;;;;;;5041754;28;20053;-58
2022/09/26 11:51:35;;;;;;;1.40;0.85;;;;;;;;;;5029135;28;20200;-62
2022/09/26 11:54:19;;;;;;;1.20;0.80;;;;;;;;;;5025401;28;20049;-60
2022/09/26 11:56:47;;;;;;;1.17;0.82;;;;;;;;;;5007480;28;20075;-60
2022/09/26 11:59:24;;;;;;;1.02;0.85;;;;;;;;;;5026067;28;20047;-57
2022/09/26 12:01:53;;;;;;;1.38;0.80;;;;;;;;;;5020087;28;20057;-60
2022/09/26 12:04:26;;;;;;;1.10;0.80;;;;;;;;;;5022999;28;20080;-61
2022/09/26 12:06:52;;;;;;;1.33;0.80;;;;;;;;;;5026076;28;20040;-62
2022/09/26 12:09:17;;;;;;;1.10;0.70;;;;;;;;;;5024220;28;20496;-62
2022/09/26 12:11:58;;;;;;;1.08;0.80;;;;;;;;;;5028414;28;20483;-58
2022/09/26 12:14:47;;;;;;;1.00;0.70;;;;;;;;;;5028675;28;20053;-57
2022/09/26 12:17:20;;;;;;;1.17;0.80;;;;;;;;;;5022179;28;20632;-58
2022/09/26 12:19:45;;;;;;;;;;;;;;;;;;5025510;28;20072;-61
2022/09/26 12:22:27;;;;;;;1.58;1.00;;;;;;;;;;5031547;28;21000;-58
2022/09/26 12:25:06;;;;;;;1.27;1.00;;;;;;;;;;5067065;28;20127;-61
2022/09/26 12:27:48;;;;;;;1.30;0.80;;;;;;;;;;5067738;28;20054;-62
2022/09/26 12:30:33;;;;;;;1.08;0.80;;;;;;;;;;5070793;28;20473;-58
2022/09/26 12:33:13;;;;;;;1.85;0.90;;;;;;;;;;5063389;28;20420;-57
2022/09/26 12:35:48;;;;;;;1.20;1.00;;;;;;;;;;5044429;28;20049;-57
2022/09/26 12:38:15;;;;;;;1.10;0.80;;;;;;;;;;5065170;28;20114;-63
2022/09/26 12:40:56;;;;;;;1.25;0.90;;;;;;;;;;5070533;28;20061;-65
2022/09/26 12:43:39;;;;;;;1.45;1.00;;;;;;;;;;5061983;28;20040;-62
2022/09/26 12:46:15;;;;;;;1.55;1.00;;;;;;;;;;5064324;28;20508;-62
2022/09/26 12:48:43;;;;;;;1.15;0.77;;;;;;;;;;5064825;28;20067;-63
2022/09/26 12:51:35;;;;;;;1.30;0.82;;;;;;;;;;5059123;28;20068;-57
2022/09/26 12:54:07;;;;;;;1.23;0.80;;;;;;;;;;5061639;28;20132;-60
2022/09/26 12:56:35;;;;;;;1.30;1.00;;;;;;;;;;5066863;28;20060;-59
2022/09/26 12:59:21;;;;;;;2.08;1.10;;;;;;;;;;5053165;28;20550;-58
2022/09/26 13:01:48;;;;;;;2.03;0.90;;;;;;;;;;5061027;28;20635;-58
2022/09/26 13:04:16;;;;;;;1.40;1.00;;;;;;;;;;5066816;28;20056;-62
2022/09/26 13:06:47;;;;;;;2.20;0.90;;;;;;;;;;5067101;28;20044;-59
2022/09/26 13:09:15;;;;;;;1.33;0.98;;;;;;;;;;5059280;28;20139;-59
2022/09/26 13:11:47;;;;;;;1.63;0.80;;;;;;;;;;5071471;28;20064;-58
2022/09/26 13:14:30;;;;;;;1.05;0.80;;;;;;;;;;5061455;28;20095;-61
2022/09/26 13:17:09;;;;;;;1.30;0.85;;;;;;;;;;5061283;28;20522;-58
2022/09/26 13:19:36;;;;;;;1.38;0.77;;;;;;;;;;5069239;28;20551;-62
2022/09/26 13:22:03;;;;;;;1.67;0.90;;;;;;;;;;5062452;28;20981;-63
2022/09/26 13:24:55;;;;;;;1.30;0.95;;;;;;;;;;5065763;28;20511;-62
2022/09/26 13:27:39;;;;;;;1.10;0.88;;;;;;;;;;5041009;28;20506;-57
2022/09/26 13:30:06;;;;;;;0.88;0.70;;;;;;;;;;5066331;28;20145;-58
2022/09/26 13:32:46;;;;;;;1.10;0.80;;;;;;;;;;5043969;28;20176;-58
2022/09/26 13:35:22;;;;;;;1.23;0.88;;;;;;;;;;5063880;28;20044;-58
2022/09/26 13:37:52;;;;;;;1.15;0.90;;;;;;;;;;5065497;28;20516;-63
2022/09/26 13:40:24;;;;;;;3.13;0.90;;;;;;;;;;5064359;28;20156;-62
2022/09/26 13:42:52;;;;;;;1.17;0.80;;;;;;;;;;5036826;28;20127;-57
2022/09/26 13:45:27;;;;;;;2.28;0.80;;;;;;;;;;5064374;28;20120;-57
2022/09/26 13:48:01;;;;;;;1.20;0.90;;;;;;;;;;5063445;28;20056;-57
2022/09/26 13:50:54;;;;;;;1.42;0.85;;;;;;;;;;5062183;28;20053;-58
2022/09/26 13:53:38;;;;;;;1.23;0.90;;;;;;;;;;5052451;28;20199;-57
2022/09/26 13:56:22;;;;;;;1.30;0.90;;;;;;;;;;5066632;28;20044;-58
2022/09/26 13:59:00;;;;;;;2.10;0.90;;;;;;;;;;5062906;28;20071;-59
2022/09/26 14:01:26;;;;;;;1.15;0.70;;;;;;;;;;5066424;28;20043;-58
2022/09/26 14:04:10;;;;;;;1.88;1.00;;;;;;;;;;5056912;28;20483;-58
2022/09/26 14:06:35;;;;;;;2.47;0.90;;;;;;;;;;5058887;28;20516;-61
2022/09/26 14:09:23;;;;;;;4.00;0.85;;;;;;;;;;5057287;28;20151;-56
2022/09/26 14:11:50;;;;;;;1.80;0.80;;;;;;;;;;5067965;28;20047;-56
2022/09/26 14:14:15;;;;;;;1.02;0.68;;;;;;;;;;5057498;28;20053;-61
2022/09/26 14:16:41;;;;;;;1.98;0.90;;;;;;;;;;5059415;28;20045;-61
2022/09/26 14:19:29;;;;;;;0.95;0.80;;;;;;;;;;5055122;28;20559;-61
2022/09/26 14:22:05;;;;;;;1.30;0.88;;;;;;;;;;5069454;28;20051;-58
2022/09/26 14:24:30;;;;;;;0.77;0.70;;;;;;;;;;5053996;28;20117;-60
2022/09/26 14:27:08;;;;;;;1.30;0.90;;;;;;;;;;5059312;28;20052;-60
2022/09/26 14:29:33;;;;;;;1.05;0.82;;;;;;;;;;5055393;28;20040;-61
2022/09/26 14:32:02;;;;;;;4.28;1.08;;;;;;;;;;5057605;28;20044;-57
2022/09/26 14:34:31;;;;;;;1.10;0.80;;;;;;;;;;5064893;28;20047;-57
2022/09/26 14:37:00;;;;;;;0.80;0.68;;;;;;;;;;5055489;28;20059;-61
2022/09/26 14:39:32;;;;;;;1.52;0.80;;;;;;;;;;5061906;28;20041;-57
2022/09/26 14:42:05;;;;;;;1.07;0.70;;;;;;;;;;5065901;28;20046;-61
2022/09/26 14:44:30;;;;;;;1.38;0.88;;;;;;;;;;5054604;28;20306;-63
2022/09/26 14:46:56;;;;;;;1.00;0.77;;;;;;;;;;5055169;28;20045;-62
2022/09/26 14:49:23;;;;;;;1.30;0.90;;;;;;;;;;5062031;28;20674;-58
2022/09/26 14:51:50;;;;;;;1.35;0.82;;;;;;;;;;5049992;28;20097;-57
2022/09/26 14:54:30;;;;;;;1.20;0.80;;;;;;;;;;5070424;28;20051;-59
2022/09/26 14:56:59;;;;;;;1.60;0.85;;;;;;;;;;5062842;28;20044;-59
2022/09/26 14:59:30;;;;;;;1.30;0.90;;;;;;;;;;5068709;28;20044;-56
2022/09/26 15:02:14;;;;;;;1.23;0.90;;;;;;;;;;5051334;28;20638;-56
2022/09/26 15:04:41;;;;;;;1.20;0.90;;;;;;;;;;5067777;28;20040;-61
2022/09/26 15:07:23;;;;;;;2.33;0.90;;;;;;;;;;5074512;28;20136;-58
2022/09/26 15:09:49;;;;;;;0.98;0.75;;;;;;;;;;5061494;28;20094;-59
2022/09/26 15:12:22;;;;;;;0.90;0.77;;;;;;;;;;5050025;28;20124;-58
2022/09/26 15:14:47;;;;;;;;;;;;;;;;;;5051548;28;20040;-63
2022/09/26 15:17:19;;;;;;;1.40;0.95;;;;;;;;;;5059332;28;19923;-57